createdAt,value
2017-05-26T00:01:06.352Z,96.27
2017-05-26T00:02:17.371Z,98.57
2017-05-26T00:03:28.432Z,98.66
2017-05-26T00:04:39.644Z,97.56
2017-05-26T00:05:50.861Z,97.33
2017-05-26T00:07:01.870Z,96.99
2017-05-26T00:08:12.939Z,96.56
2017-05-26T00:09:24.015Z,96.18
2017-05-26T00:10:35.029Z,96.22
2017-05-26T00:11:46.248Z,96.32
2017-05-26T00:12:57.259Z,96.51
2017-05-26T00:14:08.269Z,95.84
2017-05-26T00:15:19.339Z,95.94
2017-05-26T00:16:30.360Z,96.13
2017-05-26T00:17:41.378Z,95.94
2017-05-26T00:18:52.408Z,96.22
2017-05-26T00:20:03.422Z,95.46
2017-05-26T00:21:14.685Z,95.27
2017-05-26T00:22:25.689Z,96.13
2017-05-26T00:23:36.701Z,95.94
2017-05-26T00:24:47.714Z,96.99
2017-05-26T00:25:58.759Z,96.89
2017-05-26T00:27:09.815Z,98.14
2017-05-26T00:28:21.027Z,98.81
2017-05-26T00:29:32.041Z,97.18
2017-05-26T00:30:43.056Z,97.18
2017-05-26T00:31:54.271Z,97.56
2017-05-26T00:33:05.340Z,99.67
2017-05-26T00:34:16.560Z,99.19
2017-05-26T00:35:27.577Z,99.99
2017-05-26T00:36:38.591Z,99.14
2017-05-26T00:37:49.803Z,98.18
2017-05-26T00:39:00.849Z,97.61
2017-05-26T00:40:12.064Z,96.66
2017-05-26T00:41:23.083Z,96.56
2017-05-26T00:42:34.104Z,96.75
2017-05-26T00:43:45.123Z,96.37
2017-05-26T00:44:56.190Z,95.89
2017-05-26T00:46:07.205Z,96.56
2017-05-26T00:47:18.212Z,96.84
2017-05-26T00:48:29.239Z,97.42
2017-05-26T00:49:40.247Z,98.47
2017-05-26T00:50:51.260Z,97.71
2017-05-26T00:52:02.277Z,98.57
2017-05-26T00:53:13.486Z,97.9
2017-05-26T00:54:24.498Z,98.57
2017-05-26T00:55:35.769Z,99.43
2017-05-26T00:56:46.777Z,99.14
2017-05-26T00:57:57.793Z,98.85
2017-05-26T00:59:08.799Z,99.99
2017-05-26T01:00:19.842Z,98.85
2017-05-26T01:01:30.905Z,98.18
2017-05-26T01:02:41.923Z,98.28
2017-05-26T01:03:52.931Z,97.99
2017-05-26T01:05:04.157Z,97.61
2017-05-26T01:06:15.185Z,97.52
2017-05-26T01:07:26.238Z,97.42
2017-05-26T01:08:37.258Z,96.94
2017-05-26T01:09:48.269Z,96.47
2017-05-26T01:10:59.286Z,96.18
2017-05-26T01:12:10.509Z,95.61
2017-05-26T01:13:21.568Z,96.08
2017-05-26T01:14:32.582Z,96.18
2017-05-26T01:15:43.609Z,98.38
2017-05-26T01:16:54.612Z,99.81
2017-05-26T01:18:05.628Z,99.99
2017-05-26T01:19:16.699Z,99.99
2017-05-26T01:20:27.719Z,99.95
2017-05-26T01:21:38.714Z,98.71
2017-05-26T01:22:49.718Z,98.52
2017-05-26T01:24:00.939Z,97.85
2017-05-26T01:25:11.991Z,97.18
2017-05-26T01:26:23.003Z,96.8
2017-05-26T01:27:34.002Z,97.18
2017-05-26T01:28:45.011Z,96.89
2017-05-26T01:29:56.028Z,96.22
2017-05-26T01:31:07.089Z,96.42
2017-05-26T01:32:18.100Z,97.37
2017-05-26T01:33:29.115Z,97.66
2017-05-26T01:34:40.331Z,96.89
2017-05-26T01:35:51.347Z,96.89
2017-05-26T01:37:02.417Z,97.08
2017-05-26T01:38:13.426Z,96.8
2017-05-26T01:39:24.433Z,96.89
2017-05-26T01:40:35.440Z,97.85
2017-05-26T01:41:46.452Z,97.66
2017-05-26T01:42:57.512Z,97.18
2017-05-26T01:44:08.526Z,96.7
2017-05-26T01:45:19.527Z,97.08
2017-05-26T01:46:30.536Z,96.37
2017-05-26T01:47:41.546Z,96.99
2017-05-26T01:48:52.606Z,97.28
2017-05-26T01:50:03.621Z,97.61
2017-05-26T01:51:14.632Z,96.99
2017-05-26T01:52:25.634Z,96.46
2017-05-26T01:53:36.647Z,96.61
2017-05-26T01:54:47.908Z,96.75
2017-05-26T01:55:58.930Z,97.85
2017-05-26T01:57:09.933Z,99.19
2017-05-26T01:58:21.208Z,99.8
2017-05-26T01:59:32.423Z,99.8
2017-05-26T02:00:43.459Z,98.18
2017-05-26T02:01:54.471Z,98.47
2017-05-26T02:03:05.490Z,98.37
2017-05-26T02:04:16.511Z,99.43
2017-05-26T02:05:27.581Z,99.99
2017-05-26T02:06:38.800Z,99.99
2017-05-26T02:07:49.804Z,99.99
2017-05-26T02:09:00.810Z,99.99
2017-05-26T02:10:11.815Z,99.99
2017-05-26T02:11:22.870Z,99.99
2017-05-26T02:12:33.887Z,99.99
2017-05-26T02:13:44.913Z,99.99
2017-05-26T02:14:56.134Z,99.99
2017-05-26T02:16:07.148Z,99.99
2017-05-26T02:17:18.404Z,99.99
2017-05-26T02:18:29.634Z,99.99
2017-05-26T02:19:40.658Z,99.99
2017-05-26T02:20:51.675Z,99.99
2017-05-26T02:22:02.688Z,99.85
2017-05-26T02:23:13.954Z,99.18
2017-05-26T02:24:25.158Z,99.18
2017-05-26T02:25:36.174Z,99.08
2017-05-26T02:26:47.187Z,98.52
2017-05-26T02:27:58.194Z,99.08
2017-05-26T02:29:09.256Z,99.28
2017-05-26T02:30:20.478Z,99.47
2017-05-26T02:31:31.490Z,99.08
2017-05-26T02:32:42.520Z,99.99
2017-05-26T02:33:53.530Z,99.99
2017-05-26T02:35:04.589Z,99.99
2017-05-26T02:36:15.608Z,99.99
2017-05-26T02:37:26.619Z,99.99
2017-05-26T02:38:37.640Z,99.99
2017-05-26T02:39:48.855Z,99.99
2017-05-26T02:40:59.868Z,99.99
2017-05-26T02:42:11.074Z,99.57
2017-05-26T02:43:22.093Z,99.95
2017-05-26T02:44:33.109Z,99.99
2017-05-26T02:45:44.171Z,99.99
2017-05-26T02:46:55.176Z,99.99
2017-05-26T02:48:06.194Z,99.99
2017-05-26T02:49:17.400Z,99.99
2017-05-26T02:50:28.413Z,99.28
2017-05-26T02:51:39.473Z,99.66
2017-05-26T02:52:50.768Z,98.61
2017-05-26T02:54:01.786Z,98.71
2017-05-26T02:55:13.402Z,98.42
2017-05-26T02:56:24.405Z,98.32
2017-05-26T02:57:35.530Z,99.28
2017-05-26T02:58:46.554Z,99.99
2017-05-26T02:59:57.563Z,99.99
2017-05-26T03:01:08.571Z,99.99
2017-05-26T03:02:19.610Z,99.85
2017-05-26T03:03:30.888Z,99.08
2017-05-26T03:04:41.897Z,99.18
2017-05-26T03:05:52.903Z,98.52
2017-05-26T03:07:03.910Z,98.71
2017-05-26T03:08:14.915Z,98.13
2017-05-26T03:09:25.976Z,98.32
2017-05-26T03:10:37.183Z,98.52
2017-05-26T03:11:48.184Z,98.23
2017-05-26T03:12:59.215Z,98.23
2017-05-26T03:14:10.230Z,98.32
2017-05-26T03:15:21.328Z,98.99
2017-05-26T03:16:32.344Z,98.52
2017-05-26T03:17:43.556Z,98.23
2017-05-26T03:18:54.576Z,98.32
2017-05-26T03:20:05.591Z,98.42
2017-05-26T03:21:16.653Z,97.66
2017-05-26T03:22:27.655Z,97.75
2017-05-26T03:23:38.675Z,97.08
2017-05-26T03:24:49.894Z,98.18
2017-05-26T03:26:00.909Z,98.23
2017-05-26T03:27:12.217Z,97.94
2017-05-26T03:28:23.639Z,98.32
2017-05-26T03:29:34.646Z,98.42
2017-05-26T03:30:46.060Z,97.89
2017-05-26T03:31:57.074Z,98.47
2017-05-26T03:33:08.138Z,99.04
2017-05-26T03:34:19.372Z,99.13
2017-05-26T03:35:30.601Z,98.47
2017-05-26T03:36:41.625Z,98.66
2017-05-26T03:37:52.640Z,99.61
2017-05-26T03:39:03.706Z,98.94
2017-05-26T03:40:14.710Z,99.13
2017-05-26T03:41:25.733Z,98.75
2017-05-26T03:42:36.947Z,99.04
2017-05-26T03:43:47.966Z,99.99
2017-05-26T03:44:59.042Z,99.99
2017-05-26T03:46:10.061Z,99.99
2017-05-26T03:47:21.070Z,99.61
2017-05-26T03:48:32.073Z,99.42
2017-05-26T03:49:43.090Z,99.99
2017-05-26T03:50:54.098Z,99.99
2017-05-26T03:52:05.097Z,99.99
2017-05-26T03:53:16.317Z,99.99
2017-05-26T03:54:27.324Z,99.99
2017-05-26T03:55:38.496Z,99.99
2017-05-26T03:56:49.511Z,99.99
2017-05-26T03:58:00.524Z,99.99
2017-05-26T03:59:11.537Z,99.99
2017-05-26T04:00:22.538Z,99.99
2017-05-26T04:01:33.599Z,99.23
2017-05-26T04:02:44.618Z,98.47
2017-05-26T04:03:55.652Z,98.08
2017-05-26T04:05:06.662Z,98.08
2017-05-26T04:06:17.673Z,97.85
2017-05-26T04:07:28.788Z,98.52
2017-05-26T04:08:39.803Z,98.8
2017-05-26T04:09:50.825Z,98.52
2017-05-26T04:11:01.844Z,98.32
2017-05-26T04:12:12.848Z,98.23
2017-05-26T04:13:23.942Z,98.42
2017-05-26T04:14:34.965Z,97.85
2017-05-26T04:15:46.378Z,97.85
2017-05-26T04:16:57.404Z,97.89
2017-05-26T04:18:08.410Z,98.08
2017-05-26T04:19:19.679Z,98.42
2017-05-26T04:20:30.693Z,98.18
2017-05-26T04:21:41.707Z,98.38
2017-05-26T04:22:52.723Z,97.85
2017-05-26T04:24:03.769Z,96.89
2017-05-26T04:25:14.830Z,96.94
2017-05-26T04:26:25.833Z,96.94
2017-05-26T04:27:36.839Z,96.61
2017-05-26T04:28:47.859Z,95.79
2017-05-26T04:29:58.894Z,94.93
2017-05-26T04:31:09.963Z,94.64
2017-05-26T04:32:20.974Z,94.31
2017-05-26T04:33:31.987Z,94.4
2017-05-26T04:34:43.015Z,93.63
2017-05-26T04:35:54.045Z,93.11
2017-05-26T04:37:05.106Z,93.11
2017-05-26T04:38:16.138Z,93.15
2017-05-26T04:39:27.161Z,92.58
2017-05-26T04:40:38.379Z,92.1
2017-05-26T04:41:49.389Z,91.81
2017-05-26T04:43:00.852Z,92.05
2017-05-26T04:44:11.863Z,91.38
2017-05-26T04:45:23.087Z,90.99
2017-05-26T04:46:34.107Z,91.47
2017-05-26T04:47:45.126Z,90.61
2017-05-26T04:48:56.391Z,90.08
2017-05-26T04:50:07.436Z,90.08
2017-05-26T04:51:18.450Z,88.73
2017-05-26T04:52:29.659Z,86.76
2017-05-26T04:53:40.684Z,87.92
2017-05-26T04:54:51.759Z,87.43
2017-05-26T04:56:02.774Z,85.17
2017-05-26T04:57:13.798Z,85.27
2017-05-26T04:58:24.817Z,86.42
2017-05-26T04:59:35.841Z,83.92
2017-05-26T05:00:46.860Z,86.65
2017-05-26T05:01:57.881Z,83.96
2017-05-26T05:03:08.914Z,84.73
2017-05-26T05:04:19.919Z,83.19
2017-05-26T05:05:30.992Z,82.61
2017-05-26T05:06:42.215Z,85.11
2017-05-26T05:07:53.244Z,84.16
2017-05-26T05:09:04.270Z,85.21
2017-05-26T05:10:15.288Z,87.13
2017-05-26T05:11:26.359Z,83.86
2017-05-26T05:12:37.383Z,86.02
2017-05-26T05:13:48.605Z,83.52
2017-05-26T05:14:59.829Z,83.42
2017-05-26T05:16:10.848Z,85.06
2017-05-26T05:17:21.974Z,84.81
2017-05-26T05:18:33.203Z,83.56
2017-05-26T05:19:44.227Z,82.93
2017-05-26T05:20:55.268Z,82.64
2017-05-26T05:22:06.687Z,81.77
2017-05-26T05:23:17.749Z,83.45
2017-05-26T05:24:28.986Z,83.64
2017-05-26T05:25:40.027Z,82.45
2017-05-26T05:26:51.063Z,83.36
2017-05-26T05:28:02.087Z,78.54
2017-05-26T05:29:13.425Z,82.49
2017-05-26T05:30:24.442Z,84.61
2017-05-26T05:31:35.470Z,86.92
2017-05-26T05:32:46.492Z,88.28
2017-05-26T05:33:57.723Z,89.72
2017-05-26T05:35:08.792Z,90.45
2017-05-26T05:36:19.826Z,91.7
2017-05-26T05:37:30.831Z,90.69
2017-05-26T05:38:41.861Z,89.64
2017-05-26T05:39:52.886Z,92.09
2017-05-26T05:41:03.963Z,90.45
2017-05-26T05:42:14.986Z,90.07
2017-05-26T05:43:26.033Z,88.53
2017-05-26T05:44:37.257Z,89.59
2017-05-26T05:45:48.474Z,89.88
2017-05-26T05:46:59.550Z,92.04
2017-05-26T05:48:10.758Z,92.86
2017-05-26T05:49:21.789Z,92.76
2017-05-26T05:50:32.804Z,92.61
2017-05-26T05:51:44.024Z,91.85
2017-05-26T05:52:55.299Z,92.52
2017-05-26T05:54:06.327Z,92.81
2017-05-26T05:55:17.969Z,93.77
2017-05-26T05:56:28.982Z,92.81
2017-05-26T05:57:39.994Z,92.04
2017-05-26T05:58:51.066Z,93.19
2017-05-26T06:00:02.086Z,94.15
2017-05-26T06:01:13.103Z,93.82
2017-05-26T06:02:24.128Z,93.24
2017-05-26T06:03:35.351Z,93.24
2017-05-26T06:04:46.442Z,92.52
2017-05-26T06:05:57.469Z,91.84
2017-05-26T06:07:08.487Z,91.31
2017-05-26T06:08:19.495Z,90.73
2017-05-26T06:09:30.527Z,91.45
2017-05-26T06:10:41.553Z,90.78
2017-05-26T06:11:52.570Z,86.05
2017-05-26T06:13:03.594Z,88.31
2017-05-26T06:14:14.624Z,88.99
2017-05-26T06:15:25.898Z,85.46
2017-05-26T06:16:36.920Z,87.59
2017-05-26T06:17:47.945Z,87.97
2017-05-26T06:18:58.986Z,87.05
2017-05-26T06:20:10.013Z,86.28
2017-05-26T06:21:21.496Z,86.38
2017-05-26T06:22:34.812Z,85.7
2017-05-26T06:23:49.078Z,85.8
2017-05-26T06:25:00.103Z,85.22
2017-05-26T06:26:11.322Z,81.55
2017-05-26T06:27:22.395Z,82.26
2017-05-26T06:28:33.417Z,85.3
2017-05-26T06:29:44.447Z,80.76
2017-05-26T06:30:55.493Z,83.27
2017-05-26T06:32:06.777Z,83.8
2017-05-26T06:33:18.001Z,82.93
2017-05-26T06:34:29.037Z,82.35
2017-05-26T06:35:40.071Z,82.25
2017-05-26T06:36:51.299Z,82.25
2017-05-26T06:38:02.374Z,81.87
2017-05-26T06:39:13.775Z,81.87
2017-05-26T06:40:26.831Z,80.55
2017-05-26T06:41:38.092Z,79.39
2017-05-26T06:42:49.140Z,75.91
2017-05-26T06:44:00.422Z,79.04
2017-05-26T06:45:11.445Z,76.95
2017-05-26T06:46:22.478Z,78.59
2017-05-26T06:47:33.520Z,78.11
2017-05-26T06:48:44.550Z,76.86
2017-05-26T06:49:55.639Z,77.96
2017-05-26T06:51:06.674Z,77.47
2017-05-26T06:52:17.911Z,77.03
2017-05-26T06:53:28.940Z,75.77
2017-05-26T06:54:40.188Z,76.06
2017-05-26T06:55:51.259Z,74.22
2017-05-26T06:57:02.282Z,76.06
2017-05-26T06:58:13.312Z,75.9
2017-05-26T06:59:24.352Z,75.13
2017-05-26T07:00:36.929Z,75.13
2017-05-26T07:01:51.403Z,76.1
2017-05-26T07:03:05.349Z,76.15
2017-05-26T07:04:16.584Z,74.51
2017-05-26T07:05:27.641Z,75.42
2017-05-26T07:06:38.671Z,75.23
2017-05-26T07:07:49.759Z,76
2017-05-26T07:09:00.815Z,75.51
2017-05-26T07:10:11.843Z,76
2017-05-26T07:11:23.094Z,74.6
2017-05-26T07:12:34.126Z,75.81
2017-05-26T07:13:45.215Z,74.93
2017-05-26T07:14:56.661Z,73.8
2017-05-26T07:16:07.695Z,74.58
2017-05-26T07:17:18.967Z,73.84
2017-05-26T07:18:30.343Z,72.19
2017-05-26T07:19:41.419Z,71.36
2017-05-26T07:20:52.665Z,72.03
2017-05-26T07:22:03.755Z,72.71
2017-05-26T07:23:16.774Z,71.94
2017-05-26T07:24:28.105Z,71.68
2017-05-26T07:25:39.194Z,70.77
2017-05-26T07:26:50.228Z,70.39
2017-05-26T07:28:01.267Z,72.23
2017-05-26T07:29:12.306Z,72.65
2017-05-26T07:30:24.412Z,73.88
2017-05-26T07:31:37.123Z,72.87
2017-05-26T07:32:48.179Z,72.77
2017-05-26T07:33:59.598Z,73.84
2017-05-26T07:35:10.905Z,72.87
2017-05-26T07:36:22.337Z,72.09
2017-05-26T07:37:33.455Z,72.97
2017-05-26T07:38:45.514Z,71.22
2017-05-26T07:39:56.580Z,71.16
2017-05-26T07:41:07.730Z,71.1
2017-05-26T07:42:18.801Z,71.29
2017-05-26T07:43:29.954Z,72.27
2017-05-26T07:44:41.024Z,72.75
2017-05-26T07:45:52.073Z,72.42
2017-05-26T07:47:03.418Z,73.88
2017-05-26T07:48:46.126Z,73.39
2017-05-26T07:49:57.179Z,74.13
2017-05-26T07:51:08.216Z,74.91
2017-05-26T07:52:19.340Z,72.97
2017-05-26T07:53:30.381Z,72.29
2017-05-26T07:54:42.986Z,73.07
2017-05-26T07:55:54.038Z,74.43
2017-05-26T07:57:05.079Z,74.29
2017-05-26T07:58:16.134Z,73.26
2017-05-26T07:59:27.285Z,72.52
2017-05-26T08:00:38.580Z,71.64
2017-05-26T08:01:49.639Z,70.65
2017-05-26T08:03:00.723Z,70.45
2017-05-26T08:04:11.833Z,70.1
2017-05-26T08:05:22.954Z,68.48
2017-05-26T08:06:34.252Z,68.9
2017-05-26T08:07:45.360Z,69
2017-05-26T08:08:56.396Z,69.42
2017-05-26T08:10:07.430Z,68.55
2017-05-26T08:11:18.794Z,67.86
2017-05-26T08:12:29.826Z,67.47
2017-05-26T08:13:40.861Z,69.03
2017-05-26T08:14:52.330Z,69.16
2017-05-26T08:16:06.250Z,71.17
2017-05-26T08:17:17.330Z,71.26
2017-05-26T08:18:28.403Z,71.17
2017-05-26T08:19:39.720Z,71.03
2017-05-26T08:20:51.150Z,70.1
2017-05-26T08:22:02.387Z,70.2
2017-05-26T08:23:13.885Z,71.17
2017-05-26T08:24:25.480Z,70.91
2017-05-26T08:25:45.813Z,70.13
2017-05-26T08:26:57.379Z,70.85
2017-05-26T08:28:09.968Z,69.71
2017-05-26T08:29:22.144Z,69.23
2017-05-26T08:30:33.707Z,68.29
2017-05-26T08:31:44.996Z,68.68
2017-05-26T08:32:56.086Z,67.7
2017-05-26T08:34:07.853Z,65.5
2017-05-26T08:35:18.887Z,65.59
2017-05-26T08:36:29.925Z,64.52
2017-05-26T08:37:41.151Z,66.53
2017-05-26T08:38:52.450Z,66.24
2017-05-26T08:40:03.494Z,65.69
2017-05-26T08:41:14.530Z,65.78
2017-05-26T08:42:25.806Z,65.82
2017-05-26T08:43:37.665Z,65.46
2017-05-26T08:44:49.443Z,64.58
2017-05-26T08:46:01.086Z,64.51
2017-05-26T08:47:12.633Z,63.93
2017-05-26T08:48:24.496Z,63.38
2017-05-26T08:49:36.212Z,63.28
2017-05-26T08:50:47.848Z,61.62
2017-05-26T08:51:59.408Z,62.95
2017-05-26T08:53:10.938Z,62.82
2017-05-26T08:54:22.613Z,64.19
2017-05-26T08:55:34.528Z,63.18
2017-05-26T08:56:46.246Z,63.96
2017-05-26T08:57:57.953Z,64.13
2017-05-26T08:59:09.574Z,63.15
2017-05-26T09:00:21.288Z,64.81
2017-05-26T09:01:33.329Z,66.76
2017-05-26T09:02:44.759Z,65.88
2017-05-26T09:04:04.517Z,64.16
2017-05-26T09:05:22.513Z,67.18
2017-05-26T09:06:34.149Z,64.81
2017-05-26T09:07:45.697Z,65.2
2017-05-26T09:08:57.430Z,66.08
2017-05-26T09:10:08.796Z,67.25
2017-05-26T09:11:20.356Z,67.18
2017-05-26T09:12:32.041Z,65.63
2017-05-26T09:13:43.761Z,65.56
2017-05-26T09:14:55.782Z,64.12
2017-05-26T09:16:07.341Z,63.54
2017-05-26T09:17:18.974Z,63.64
2017-05-26T09:18:30.669Z,63.15
2017-05-26T09:19:42.187Z,63.73
2017-05-26T09:20:54.107Z,64.09
2017-05-26T09:22:05.701Z,63.64
2017-05-26T09:23:17.439Z,64.03
2017-05-26T09:24:29.012Z,63.73
2017-05-26T09:25:40.558Z,64.22
2017-05-26T09:26:52.248Z,63.64
2017-05-26T09:28:04.008Z,62.56
2017-05-26T09:29:15.409Z,62.95
2017-05-26T09:30:30.115Z,63.31
2017-05-26T09:31:44.836Z,63.93
2017-05-26T09:33:10.036Z,66.47
2017-05-26T09:34:35.813Z,64.22
2017-05-26T09:35:47.654Z,64.81
2017-05-26T09:36:59.285Z,65.1
2017-05-26T09:38:10.933Z,63.54
2017-05-26T09:39:22.207Z,63.44
2017-05-26T09:40:34.268Z,62.95
2017-05-26T09:41:46.251Z,65.49
2017-05-26T09:42:58.007Z,63.48
2017-05-26T09:44:09.665Z,61.13
2017-05-26T09:45:21.184Z,65.88
2017-05-26T09:46:32.607Z,62.37
2017-05-26T09:47:44.220Z,62.89
2017-05-26T09:48:55.559Z,62.6
2017-05-26T09:50:06.840Z,61.65
2017-05-26T09:51:18.388Z,61.25
2017-05-26T09:52:29.436Z,60.57
2017-05-26T09:53:40.806Z,61.35
2017-05-26T09:54:54.380Z,61.06
2017-05-26T09:56:10.624Z,60.71
2017-05-26T09:57:21.701Z,62.53
2017-05-26T09:58:32.735Z,63.28
2017-05-26T09:59:43.834Z,63.09
2017-05-26T10:00:55.263Z,63.96
2017-05-26T10:02:06.283Z,62.44
2017-05-26T10:03:17.316Z,63.7
2017-05-26T10:04:28.395Z,62.24
2017-05-26T10:05:39.424Z,63.21
2017-05-26T10:06:50.459Z,63.31
2017-05-26T10:08:01.703Z,63.41
2017-05-26T10:09:12.742Z,64
2017-05-26T10:10:23.997Z,63.31
2017-05-26T10:11:35.429Z,59.9
2017-05-26T10:12:46.468Z,62.34
2017-05-26T10:13:57.527Z,65.26
2017-05-26T10:15:08.600Z,67.15
2017-05-26T10:16:19.841Z,62.21
2017-05-26T10:17:30.887Z,61.72
2017-05-26T10:18:41.912Z,62.11
2017-05-26T10:19:52.950Z,62.6
2017-05-26T10:21:04.043Z,61.4
2017-05-26T10:22:15.084Z,61.66
2017-05-26T10:23:26.119Z,62.12
2017-05-26T10:24:37.158Z,59.87
2017-05-26T10:25:48.199Z,62.76
2017-05-26T10:26:59.278Z,65.82
2017-05-26T10:28:10.324Z,62.02
2017-05-26T10:29:21.358Z,61.95
2017-05-26T10:30:32.596Z,60.58
2017-05-26T10:31:43.623Z,60.68
2017-05-26T10:32:54.719Z,64.68
2017-05-26T10:34:05.957Z,61.88
2017-05-26T10:35:16.985Z,61.59
2017-05-26T10:36:28.218Z,63.73
2017-05-26T10:37:39.446Z,61.59
2017-05-26T10:38:50.541Z,63.54
2017-05-26T10:40:01.567Z,62.27
2017-05-26T10:41:12.607Z,61.88
2017-05-26T10:42:23.637Z,61.69
2017-05-26T10:43:34.874Z,61.72
2017-05-26T10:44:46.022Z,59.86
2017-05-26T10:45:57.057Z,62.89
2017-05-26T10:47:08.092Z,61.25
2017-05-26T10:48:19.126Z,60.47
2017-05-26T10:49:30.165Z,61.35
2017-05-26T10:50:41.189Z,59.53
2017-05-26T10:51:52.226Z,55.81
2017-05-26T10:53:03.461Z,56.01
2017-05-26T10:54:14.683Z,58.06
2017-05-26T10:55:25.771Z,59.63
2017-05-26T10:56:36.806Z,62.29
2017-05-26T10:57:47.840Z,60.53
2017-05-26T10:58:58.892Z,57.89
2017-05-26T11:00:10.130Z,58.61
2017-05-26T11:01:21.203Z,57.92
2017-05-26T11:02:32.245Z,59.66
2017-05-26T11:03:43.281Z,58.68
2017-05-26T11:04:54.320Z,57.77
2017-05-26T11:06:05.350Z,60.47
2017-05-26T11:07:16.635Z,58.81
2017-05-26T11:08:27.676Z,59.4
2017-05-26T11:09:38.714Z,57.23
2017-05-26T11:10:49.755Z,56.84
2017-05-26T11:12:00.999Z,57.62
2017-05-26T11:13:12.084Z,60.06
2017-05-26T11:14:23.135Z,60.45
2017-05-26T11:15:34.178Z,59.77
2017-05-26T11:16:45.207Z,59.38
2017-05-26T11:17:56.231Z,60.94
2017-05-26T11:19:07.319Z,61.16
2017-05-26T11:20:18.358Z,61.35
2017-05-26T11:21:29.381Z,59.89
2017-05-26T11:22:40.415Z,58.13
2017-05-26T11:23:51.660Z,58.03
2017-05-26T11:25:02.955Z,57.38
2017-05-26T11:26:13.989Z,58.55
2017-05-26T11:27:25.028Z,58.45
2017-05-26T11:28:36.049Z,58.36
2017-05-26T11:29:47.297Z,56.6
2017-05-26T11:30:58.325Z,57.57
2017-05-26T11:32:09.357Z,59.53
2017-05-26T11:33:20.389Z,58.87
2017-05-26T11:34:31.431Z,58.87
2017-05-26T11:35:42.770Z,59.56
2017-05-26T11:36:53.801Z,59.66
2017-05-26T11:38:04.846Z,57.73
2017-05-26T11:39:15.886Z,56.23
2017-05-26T11:40:27.117Z,58.26
2017-05-26T11:41:38.192Z,59.85
2017-05-26T11:42:49.299Z,58.7
2017-05-26T11:44:00.545Z,55.67
2017-05-26T11:45:11.782Z,58.51
2017-05-26T11:46:23.009Z,56.56
2017-05-26T11:47:34.098Z,53.59
2017-05-26T11:48:45.126Z,55.55
2017-05-26T11:49:56.152Z,56.62
2017-05-26T11:51:07.197Z,56.62
2017-05-26T11:52:18.431Z,57.11
2017-05-26T11:53:29.504Z,59.33
2017-05-26T11:54:40.736Z,58.06
2017-05-26T11:55:51.767Z,55.81
2017-05-26T11:57:02.797Z,57.35
2017-05-26T11:58:14.033Z,56.37
2017-05-26T11:59:25.318Z,54.91
2017-05-26T12:00:36.357Z,55.13
2017-05-26T12:01:47.384Z,56.37
2017-05-26T12:02:58.416Z,55
2017-05-26T12:04:09.452Z,56.67
2017-05-26T12:05:20.538Z,56.99
2017-05-26T12:06:31.578Z,56.01
2017-05-26T12:07:42.620Z,52.86
2017-05-26T12:08:53.666Z,52.86
2017-05-26T12:10:05.109Z,55.1
2017-05-26T12:11:16.194Z,56.67
2017-05-26T12:12:27.235Z,59.99
2017-05-26T12:13:38.266Z,57.25
2017-05-26T12:14:49.509Z,56.08
2017-05-26T12:16:00.948Z,59.08
2017-05-26T12:17:12.021Z,55.49
2017-05-26T12:18:23.250Z,54.81
2017-05-26T12:19:34.285Z,55.57
2017-05-26T12:20:45.319Z,57.03
2017-05-26T12:21:56.359Z,57.62
2017-05-26T12:23:07.449Z,59.67
2017-05-26T12:24:18.484Z,57.64
2017-05-26T12:25:29.505Z,57.35
2017-05-26T12:26:52.082Z,57.45
2017-05-26T12:28:23.108Z,55.69
2017-05-26T12:29:34.338Z,57.03
2017-05-26T12:30:57.956Z,57.03
2017-05-26T12:32:25.079Z,56.93
2017-05-26T12:33:38.617Z,56.15
2017-05-26T12:35:00.761Z,54.98
2017-05-26T12:36:11.805Z,54.88
2017-05-26T12:37:23.028Z,56.22
2017-05-26T12:38:34.308Z,56.02
2017-05-26T12:40:01.138Z,54.93
2017-05-26T12:41:19.779Z,58.63
2017-05-26T12:42:30.811Z,58.53
2017-05-26T12:43:42.085Z,58.34
2017-05-26T12:44:53.125Z,58.14
2017-05-26T12:46:04.162Z,59.31
2017-05-26T12:47:24.664Z,58.14
2017-05-26T12:48:59.269Z,55.71
2017-05-26T12:50:10.285Z,58.17
2017-05-26T12:51:21.518Z,57.1
2017-05-26T12:52:32.547Z,59.25
2017-05-26T12:53:43.586Z,55.47
2017-05-26T12:54:54.668Z,53.81
2017-05-26T12:56:06.094Z,59.25
2017-05-26T12:57:17.120Z,56.35
2017-05-26T12:58:28.146Z,58.56
2017-05-26T12:59:39.377Z,55.15
2017-05-26T13:00:50.607Z,56.32
2017-05-26T13:02:01.641Z,57.29
2017-05-26T13:03:12.668Z,56.41
2017-05-26T13:04:23.688Z,54.85
2017-05-26T13:05:34.762Z,60.13
2017-05-26T13:06:45.844Z,62.4
2017-05-26T13:07:56.941Z,56.35
2017-05-26T13:09:08.923Z,53.71
2017-05-26T13:10:27.505Z,56.81
2017-05-26T13:11:38.581Z,56.41
2017-05-26T13:12:49.603Z,55.15
2017-05-26T13:14:01.037Z,56.2
2017-05-26T13:15:12.574Z,56.95
2017-05-26T13:16:23.852Z,58.6
2017-05-26T13:17:34.884Z,59.19
2017-05-26T13:18:47.020Z,56.95
2017-05-26T13:19:58.040Z,55.68
2017-05-26T13:21:09.065Z,58.6
2017-05-26T13:22:20.141Z,59.77
2017-05-26T13:23:31.173Z,59.28
2017-05-26T13:24:42.466Z,60.1
2017-05-26T13:25:53.499Z,59.31
2017-05-26T13:27:04.526Z,58.34
2017-05-26T13:28:15.609Z,60.97
2017-05-26T13:29:26.832Z,58.14
2017-05-26T13:30:37.859Z,57.26
2017-05-26T13:31:48.882Z,57.53
2017-05-26T13:32:59.913Z,59.19
2017-05-26T13:34:10.984Z,62.31
2017-05-26T13:35:22.013Z,62.31
2017-05-26T13:36:33.047Z,57.43
2017-05-26T13:37:44.065Z,57.43
2017-05-26T13:38:55.088Z,56.75
2017-05-26T13:40:06.123Z,60.26
2017-05-26T13:41:17.138Z,58.22
2017-05-26T13:42:28.163Z,60.36
2017-05-26T13:43:55.550Z,60.72
2017-05-26T13:45:06.828Z,58.28
2017-05-26T13:46:17.873Z,60.33
2017-05-26T13:47:28.902Z,60.91
2017-05-26T13:48:40.118Z,61.11
2017-05-26T13:49:51.150Z,59.45
2017-05-26T13:51:02.223Z,59.06
2017-05-26T13:52:13.256Z,62.15
2017-05-26T13:53:24.277Z,61.18
2017-05-26T13:54:35.301Z,60.69
2017-05-26T13:55:46.331Z,61.76
2017-05-26T13:56:57.419Z,60.3
2017-05-26T13:58:08.839Z,59.42
2017-05-26T13:59:19.861Z,62.35
2017-05-26T14:00:30.892Z,62.41
2017-05-26T14:01:41.915Z,64.07
2017-05-26T14:02:53.193Z,61.27
2017-05-26T14:04:04.216Z,59.81
2017-05-26T14:05:15.250Z,61.99
2017-05-26T14:06:26.280Z,60.52
2017-05-26T14:07:37.300Z,61.14
2017-05-26T14:08:48.579Z,60.62
2017-05-26T14:09:59.607Z,58.12
2017-05-26T14:11:11.029Z,58.58
2017-05-26T14:12:22.063Z,60.52
2017-05-26T14:13:33.079Z,60.33
2017-05-26T14:14:44.157Z,57.11
2017-05-26T14:15:55.183Z,57.86
2017-05-26T14:17:06.211Z,61.66
2017-05-26T14:18:17.235Z,59.03
2017-05-26T14:19:28.266Z,59.13
2017-05-26T14:20:39.337Z,57.99
2017-05-26T14:21:50.370Z,55.46
2017-05-26T14:23:01.415Z,57.76
2017-05-26T14:24:12.440Z,60.33
2017-05-26T14:25:23.655Z,59.35
2017-05-26T14:26:34.726Z,62.66
2017-05-26T14:27:45.745Z,59.84
2017-05-26T14:28:56.785Z,59.16
2017-05-26T14:30:07.811Z,59.74
2017-05-26T14:31:18.829Z,60
2017-05-26T14:32:29.900Z,60.78
2017-05-26T14:33:41.124Z,59.23
2017-05-26T14:34:52.152Z,59.62
2017-05-26T14:36:03.189Z,60.69
2017-05-26T14:37:14.220Z,58.15
2017-05-26T14:38:25.288Z,60.59
2017-05-26T14:39:36.306Z,55.94
2017-05-26T14:40:47.327Z,56.33
2017-05-26T14:41:58.562Z,59.45
2017-05-26T14:43:09.598Z,58.48
2017-05-26T14:44:20.622Z,59.45
2017-05-26T14:45:31.655Z,60.52
2017-05-26T14:46:42.873Z,59.84
2017-05-26T14:47:53.912Z,58.48
2017-05-26T14:49:05.186Z,57.31
2017-05-26T14:50:16.210Z,56.04
2017-05-26T14:51:27.451Z,59.16
2017-05-26T14:52:38.480Z,58.45
2017-05-26T14:53:49.507Z,57.47
2017-05-26T14:55:00.535Z,60.56
2017-05-26T14:56:11.554Z,60.46
2017-05-26T14:57:22.917Z,59.2
2017-05-26T14:58:34.319Z,58.32
2017-05-26T14:59:45.576Z,61.05
2017-05-26T15:00:56.675Z,60.46
2017-05-26T15:02:07.894Z,62.99
2017-05-26T15:03:19.119Z,59.52
2017-05-26T15:04:30.140Z,58.06
2017-05-26T15:05:41.217Z,58.64
2017-05-26T15:06:52.439Z,61.47
2017-05-26T15:08:03.676Z,59.88
2017-05-26T15:09:14.696Z,59.2
2017-05-26T15:10:25.730Z,60.85
2017-05-26T15:11:36.812Z,59.69
2017-05-26T15:12:48.235Z,58.91
2017-05-26T15:13:59.475Z,59.3
2017-05-26T15:15:10.695Z,57.74
2017-05-26T15:16:21.702Z,59.75
2017-05-26T15:17:32.783Z,59.27
2017-05-26T15:18:43.810Z,60.92
2017-05-26T15:19:54.836Z,60.63
2017-05-26T15:21:05.871Z,60.34
2017-05-26T15:22:16.890Z,59.17
2017-05-26T15:23:27.967Z,61.99